sensor_id;sensor_type;location;lat;lon;timestamp;temperature;humidity
36186;DHT22;22228;53.222;7.446;2023-04-24T00:01:43;10.50;99.90
36186;DHT22;22228;53.222;7.446;2023-04-24T00:04:04;10.50;99.90
36186;DHT22;22228;53.222;7.446;2023-04-24T00:06:26;10.40;99.90
36186;DHT22;22228;53.222;7.446;2023-04-24T00:08:53;10.40;99.90
36186;DHT22;22228;53.222;7.446;2023-04-24T00:11:13;10.30;99.90
36186;DHT22;22228;53.222;7.446;2023-04-24T00:13:34;10.30;99.90
36186;DHT22;22228;53.222;7.446;2023-04-24T03:02:55;9.10;99.90
36186;DHT22;22228;53.222;7.446;2023-04-24T03:05:15;9.10;99.90
36186;DHT22;22228;53.222;7.446;2023-04-24T03:07:36;9.10;99.90
36186;DHT22;22228;53.222;7.446;2023-04-24T03:09:56;9.10;99.90
36186;DHT22;22228;53.222;7.446;2023-04-24T03:12:17;9.10;99.90
36186;DHT22;22228;53.222;7.446;2023-04-24T03:14:38;9.10;99.90
36186;DHT22;22228;53.222;7.446;2023-04-24T03:16:58;9.10;99.90
36186;DHT22;22228;53.222;7.446;2023-04-24T03:19:20;9.10;99.90
36186;DHT22;22228;53.222;7.446;2023-04-24T03:21:51;9.10;99.90
36186;DHT22;22228;53.222;7.446;2023-04-24T03:24:11;9.10;99.90
36186;DHT22;22228;53.222;7.446;2023-04-24T03:26:32;9.10;99.90
36186;DHT22;22228;53.222;7.446;2023-04-24T03:29:06;9.10;99.90
36186;DHT22;22228;53.222;7.446;2023-04-24T03:31:27;9.10;99.90
36186;DHT22;22228;53.222;7.446;2023-04-24T03:33:47;9.10;99.90
36186;DHT22;22228;53.222;7.446;2023-04-24T03:36:09;9.10;99.90
36186;DHT22;22228;53.222;7.446;2023-04-24T03:38:33;9.10;99.90
36186;DHT22;22228;53.222;7.446;2023-04-24T03:41:12;9.10;99.90
36186;DHT22;22228;53.222;7.446;2023-04-24T03:43:38;9.10;99.90
36186;DHT22;22228;53.222;7.446;2023-04-24T03:45:59;9.10;99.90
36186;DHT22;22228;53.222;7.446;2023-04-24T03:48:20;9.10;99.90
36186;DHT22;22228;53.222;7.446;2023-04-24T03:50:40;9.10;99.90
36186;DHT22;22228;53.222;7.446;2023-04-24T03:53:04;9.10;99.90
36186;DHT22;22228;53.222;7.446;2023-04-24T03:55:29;9.10;99.90
36186;DHT22;22228;53.222;7.446;2023-04-24T03:57:51;9.10;99.90
36186;DHT22;22228;53.222;7.446;2023-04-24T04:00:15;9.10;99.90
36186;DHT22;22228;53.222;7.446;2023-04-24T04:02:40;9.10;99.90
36186;DHT22;22228;53.222;7.446;2023-04-24T04:05:01;9.10;99.90
36186;DHT22;22228;53.222;7.446;2023-04-24T04:07:22;9.10;99.90
36186;DHT22;22228;53.222;7.446;2023-04-24T04:09:44;9.10;99.90
36186;DHT22;22228;53.222;7.446;2023-04-24T04:12:04;9.10;99.90
36186;DHT22;22228;53.222;7.446;2023-04-24T04:14:26;9.00;99.90
36186;DHT22;22228;53.222;7.446;2023-04-24T04:16:47;9.10;99.90
36186;DHT22;22228;53.222;7.446;2023-04-24T04:19:07;9.00;99.90
36186;DHT22;22228;53.222;7.446;2023-04-24T04:21:28;9.00;99.90
36186;DHT22;22228;53.222;7.446;2023-04-24T04:24:01;9.10;99.90
36186;DHT22;22228;53.222;7.446;2023-04-24T04:26:28;9.10;99.90
36186;DHT22;22228;53.222;7.446;2023-04-24T04:28:55;9.10;99.90
36186;DHT22;22228;53.222;7.446;2023-04-24T04:31:16;9.10;99.90
36186;DHT22;22228;53.222;7.446;2023-04-24T04:33:36;9.10;99.90
36186;DHT22;22228;53.222;7.446;2023-04-24T04:35:59;9.10;99.90
36186;DHT22;22228;53.222;7.446;2023-04-24T04:38:21;9.10;99.90
36186;DHT22;22228;53.222;7.446;2023-04-24T04:40:50;9.10;99.90
36186;DHT22;22228;53.222;7.446;2023-04-24T04:43:14;9.10;99.90
36186;DHT22;22228;53.222;7.446;2023-04-24T04:45:41;9.10;99.90
36186;DHT22;22228;53.222;7.446;2023-04-24T04:48:21;9.10;99.90
36186;DHT22;22228;53.222;7.446;2023-04-24T04:50:42;9.10;99.90
36186;DHT22;22228;53.222;7.446;2023-04-24T04:53:02;9.20;99.90
36186;DHT22;22228;53.222;7.446;2023-04-24T04:55:27;9.20;99.90
36186;DHT22;22228;53.222;7.446;2023-04-24T04:58:02;9.20;99.90
36186;DHT22;22228;53.222;7.446;2023-04-24T05:00:23;9.20;99.90
36186;DHT22;22228;53.222;7.446;2023-04-24T05:02:45;9.20;99.90
36186;DHT22;22228;53.222;7.446;2023-04-24T05:05:07;9.20;99.90
36186;DHT22;22228;53.222;7.446;2023-04-24T05:07:28;9.20;99.90
36186;DHT22;22228;53.222;7.446;2023-04-24T05:09:49;9.20;99.90
36186;DHT22;22228;53.222;7.446;2023-04-24T05:12:10;9.20;99.90
36186;DHT22;22228;53.222;7.446;2023-04-24T05:14:39;9.20;99.90
36186;DHT22;22228;53.222;7.446;2023-04-24T05:17:01;9.30;99.90
36186;DHT22;22228;53.222;7.446;2023-04-24T05:19:23;9.30;99.90
36186;DHT22;22228;53.222;7.446;2023-04-24T05:21:43;9.30;99.90
36186;DHT22;22228;53.222;7.446;2023-04-24T05:24:04;9.30;99.90
36186;DHT22;22228;53.222;7.446;2023-04-24T05:26:38;9.30;99.90
36186;DHT22;22228;53.222;7.446;2023-04-24T05:29:00;9.30;99.90
36186;DHT22;22228;53.222;7.446;2023-04-24T05:31:21;9.30;99.90
36186;DHT22;22228;53.222;7.446;2023-04-24T05:33:44;9.30;99.90
36186;DHT22;22228;53.222;7.446;2023-04-24T05:36:06;9.30;99.90
36186;DHT22;22228;53.222;7.446;2023-04-24T05:38:27;9.30;99.90
36186;DHT22;22228;53.222;7.446;2023-04-24T05:40:47;9.30;99.90
36186;DHT22;22228;53.222;7.446;2023-04-24T05:43:08;9.30;99.90
36186;DHT22;22228;53.222;7.446;2023-04-24T05:45:29;9.30;99.90
36186;DHT22;22228;53.222;7.446;2023-04-24T05:47:49;9.30;99.90
36186;DHT22;22228;53.222;7.446;2023-04-24T05:50:13;9.40;99.90
36186;DHT22;22228;53.222;7.446;2023-04-24T05:52:33;9.40;99.90
36186;DHT22;22228;53.222;7.446;2023-04-24T05:54:58;9.40;99.90
36186;DHT22;22228;53.222;7.446;2023-04-24T05:57:24;9.50;99.90
36186;DHT22;22228;53.222;7.446;2023-04-24T05:59:52;9.50;99.90
36186;DHT22;22228;53.222;7.446;2023-04-24T06:02:14;9.50;99.90
36186;DHT22;22228;53.222;7.446;2023-04-24T06:04:34;9.50;99.90
36186;DHT22;22228;53.222;7.446;2023-04-24T06:06:56;9.50;99.90
36186;DHT22;22228;53.222;7.446;2023-04-24T06:09:17;9.50;99.90
36186;DHT22;22228;53.222;7.446;2023-04-24T06:11:38;9.50;99.90
36186;DHT22;22228;53.222;7.446;2023-04-24T06:13:59;9.50;99.90
36186;DHT22;22228;53.222;7.446;2023-04-24T06:16:41;9.50;99.90
36186;DHT22;22228;53.222;7.446;2023-04-24T06:19:19;9.50;99.90
36186;DHT22;22228;53.222;7.446;2023-04-24T06:21:40;9.40;99.90
36186;DHT22;22228;53.222;7.446;2023-04-24T06:24:02;9.40;99.90
36186;DHT22;22228;53.222;7.446;2023-04-24T06:26:24;9.40;99.90
36186;DHT22;22228;53.222;7.446;2023-04-24T06:28:45;9.40;99.90
36186;DHT22;22228;53.222;7.446;2023-04-24T06:31:06;9.40;99.90
36186;DHT22;22228;53.222;7.446;2023-04-24T06:33:26;9.40;99.90
36186;DHT22;22228;53.222;7.446;2023-04-24T06:35:47;9.50;99.90
36186;DHT22;22228;53.222;7.446;2023-04-24T06:38:08;9.60;99.90
36186;DHT22;22228;53.222;7.446;2023-04-24T06:40:30;9.60;99.90
36186;DHT22;22228;53.222;7.446;2023-04-24T06:42:50;9.60;99.90
36186;DHT22;22228;53.222;7.446;2023-04-24T06:45:11;9.60;99.90
36186;DHT22;22228;53.222;7.446;2023-04-24T06:47:32;9.60;99.90
36186;DHT22;22228;53.222;7.446;2023-04-24T06:49:52;9.60;99.90
36186;DHT22;22228;53.222;7.446;2023-04-24T06:52:14;9.70;99.90
36186;DHT22;22228;53.222;7.446;2023-04-24T06:54:34;9.70;99.90
36186;DHT22;22228;53.222;7.446;2023-04-24T06:56:56;9.60;99.90
36186;DHT22;22228;53.222;7.446;2023-04-24T06:59:17;9.50;99.90
36186;DHT22;22228;53.222;7.446;2023-04-24T07:01:37;9.50;99.90
36186;DHT22;22228;53.222;7.446;2023-04-24T07:03:57;9.60;99.90
36186;DHT22;22228;53.222;7.446;2023-04-24T07:06:18;9.50;99.90
36186;DHT22;22228;53.222;7.446;2023-04-24T07:08:41;9.40;99.90
36186;DHT22;22228;53.222;7.446;2023-04-24T07:11:03;9.40;99.90
36186;DHT22;22228;53.222;7.446;2023-04-24T07:13:24;9.40;99.90
36186;DHT22;22228;53.222;7.446;2023-04-24T07:15:45;9.50;99.90
36186;DHT22;22228;53.222;7.446;2023-04-24T07:18:05;9.50;99.90
36186;DHT22;22228;53.222;7.446;2023-04-24T07:20:25;9.50;99.90
36186;DHT22;22228;53.222;7.446;2023-04-24T07:22:46;9.50;99.90
36186;DHT22;22228;53.222;7.446;2023-04-24T07:25:08;9.60;99.90
36186;DHT22;22228;53.222;7.446;2023-04-24T07:27:28;9.70;99.90
36186;DHT22;22228;53.222;7.446;2023-04-24T07:29:50;9.70;99.90
36186;DHT22;22228;53.222;7.446;2023-04-24T07:32:10;9.70;99.90
36186;DHT22;22228;53.222;7.446;2023-04-24T07:34:31;9.70;99.90
36186;DHT22;22228;53.222;7.446;2023-04-24T07:36:51;9.70;99.90
36186;DHT22;22228;53.222;7.446;2023-04-24T07:39:12;9.70;99.90
36186;DHT22;22228;53.222;7.446;2023-04-24T07:41:32;9.70;99.90
36186;DHT22;22228;53.222;7.446;2023-04-24T07:43:53;9.80;99.90
36186;DHT22;22228;53.222;7.446;2023-04-24T07:46:14;9.70;99.90
36186;DHT22;22228;53.222;7.446;2023-04-24T07:48:35;9.70;99.90
36186;DHT22;22228;53.222;7.446;2023-04-24T07:50:56;9.70;99.90
36186;DHT22;22228;53.222;7.446;2023-04-24T07:53:16;9.70;99.90
36186;DHT22;22228;53.222;7.446;2023-04-24T07:55:37;9.70;99.90
36186;DHT22;22228;53.222;7.446;2023-04-24T07:57:58;9.60;99.90
36186;DHT22;22228;53.222;7.446;2023-04-24T08:00:19;9.60;99.90
36186;DHT22;22228;53.222;7.446;2023-04-24T08:02:41;9.70;99.90
36186;DHT22;22228;53.222;7.446;2023-04-24T08:05:01;9.70;99.90
36186;DHT22;22228;53.222;7.446;2023-04-24T08:07:23;9.70;99.90
36186;DHT22;22228;53.222;7.446;2023-04-24T08:09:44;9.70;99.90
36186;DHT22;22228;53.222;7.446;2023-04-24T08:12:04;9.70;99.90
36186;DHT22;22228;53.222;7.446;2023-04-24T08:14:25;9.60;99.90
36186;DHT22;22228;53.222;7.446;2023-04-24T08:16:46;9.70;99.90
36186;DHT22;22228;53.222;7.446;2023-04-24T08:19:08;9.60;99.90
36186;DHT22;22228;53.222;7.446;2023-04-24T08:21:29;9.60;99.90
36186;DHT22;22228;53.222;7.446;2023-04-24T08:23:50;9.60;99.90
36186;DHT22;22228;53.222;7.446;2023-04-24T08:26:10;9.60;99.90
36186;DHT22;22228;53.222;7.446;2023-04-24T08:28:31;9.70;99.90
36186;DHT22;22228;53.222;7.446;2023-04-24T08:30:51;9.70;99.90
36186;DHT22;22228;53.222;7.446;2023-04-24T08:33:13;9.70;99.90
36186;DHT22;22228;53.222;7.446;2023-04-24T08:35:35;9.70;99.90
36186;DHT22;22228;53.222;7.446;2023-04-24T08:37:55;9.70;99.90
36186;DHT22;22228;53.222;7.446;2023-04-24T08:40:16;9.70;99.90
36186;DHT22;22228;53.222;7.446;2023-04-24T08:42:37;9.70;99.90
36186;DHT22;22228;53.222;7.446;2023-04-24T08:44:58;9.70;99.90
36186;DHT22;22228;53.222;7.446;2023-04-24T08:47:20;9.70;99.90
36186;DHT22;22228;53.222;7.446;2023-04-24T08:49:40;9.70;99.90
36186;DHT22;22228;53.222;7.446;2023-04-24T08:52:02;9.80;99.90
36186;DHT22;22228;53.222;7.446;2023-04-24T08:54:23;9.70;99.90
36186;DHT22;22228;53.222;7.446;2023-04-24T08:56:45;9.70;99.90
36186;DHT22;22228;53.222;7.446;2023-04-24T08:59:07;9.70;99.90
36186;DHT22;22228;53.222;7.446;2023-04-24T09:01:28;9.70;99.90
36186;DHT22;22228;53.222;7.446;2023-04-24T09:03:49;9.70;99.90
36186;DHT22;22228;53.222;7.446;2023-04-24T09:06:10;9.70;99.90
36186;DHT22;22228;53.222;7.446;2023-04-24T09:08:32;9.70;99.90
36186;DHT22;22228;53.222;7.446;2023-04-24T09:10:53;9.70;99.90
36186;DHT22;22228;53.222;7.446;2023-04-24T09:13:14;9.70;99.90
36186;DHT22;22228;53.222;7.446;2023-04-24T09:15:35;9.70;99.90
36186;DHT22;22228;53.222;7.446;2023-04-24T09:17:56;9.70;99.90
36186;DHT22;22228;53.222;7.446;2023-04-24T09:20:17;9.70;99.90
36186;DHT22;22228;53.222;7.446;2023-04-24T09:22:37;9.70;99.90
36186;DHT22;22228;53.222;7.446;2023-04-24T09:25:07;9.60;99.90
36186;DHT22;22228;53.222;7.446;2023-04-24T09:27:28;9.60;99.90
36186;DHT22;22228;53.222;7.446;2023-04-24T09:29:55;9.60;99.90
36186;DHT22;22228;53.222;7.446;2023-04-24T09:32:19;9.60;99.90
36186;DHT22;22228;53.222;7.446;2023-04-24T09:34:40;9.60;99.90
36186;DHT22;22228;53.222;7.446;2023-04-24T09:37:03;9.60;99.90
36186;DHT22;22228;53.222;7.446;2023-04-24T09:39:24;9.50;99.90
36186;DHT22;22228;53.222;7.446;2023-04-24T09:41:47;9.50;99.90
36186;DHT22;22228;53.222;7.446;2023-04-24T09:44:11;9.50;99.90
36186;DHT22;22228;53.222;7.446;2023-04-24T09:46:33;9.50;99.90
36186;DHT22;22228;53.222;7.446;2023-04-24T09:48:55;9.60;99.90
36186;DHT22;22228;53.222;7.446;2023-04-24T09:51:15;9.60;99.90
36186;DHT22;22228;53.222;7.446;2023-04-24T09:53:36;9.50;99.90
36186;DHT22;22228;53.222;7.446;2023-04-24T09:56:07;9.50;99.90
36186;DHT22;22228;53.222;7.446;2023-04-24T09:58:29;9.50;99.90
36186;DHT22;22228;53.222;7.446;2023-04-24T10:00:53;9.50;99.90
36186;DHT22;22228;53.222;7.446;2023-04-24T10:03:13;9.50;99.90
36186;DHT22;22228;53.222;7.446;2023-04-24T10:05:35;9.50;99.90
36186;DHT22;22228;53.222;7.446;2023-04-24T10:07:57;9.40;99.90
36186;DHT22;22228;53.222;7.446;2023-04-24T10:10:18;9.40;99.90
36186;DHT22;22228;53.222;7.446;2023-04-24T10:12:39;9.40;99.90
36186;DHT22;22228;53.222;7.446;2023-04-24T10:15:01;9.50;99.90
36186;DHT22;22228;53.222;7.446;2023-04-24T10:17:23;9.60;99.90
36186;DHT22;22228;53.222;7.446;2023-04-24T10:19:46;9.50;99.90
36186;DHT22;22228;53.222;7.446;2023-04-24T10:22:06;9.40;99.90
36186;DHT22;22228;53.222;7.446;2023-04-24T10:24:28;9.20;99.90
36186;DHT22;22228;53.222;7.446;2023-04-24T10:26:49;9.10;99.90
36186;DHT22;22228;53.222;7.446;2023-04-24T10:29:11;9.10;99.90
36186;DHT22;22228;53.222;7.446;2023-04-24T10:31:33;9.00;99.90
36186;DHT22;22228;53.222;7.446;2023-04-24T10:33:54;9.00;99.90
36186;DHT22;22228;53.222;7.446;2023-04-24T10:36:16;9.00;99.90
36186;DHT22;22228;53.222;7.446;2023-04-24T10:38:37;9.00;99.90
36186;DHT22;22228;53.222;7.446;2023-04-24T10:41:07;9.00;99.90
36186;DHT22;22228;53.222;7.446;2023-04-24T10:43:29;8.90;99.90
36186;DHT22;22228;53.222;7.446;2023-04-24T10:46:03;8.90;99.90
36186;DHT22;22228;53.222;7.446;2023-04-24T10:48:26;8.80;99.90
36186;DHT22;22228;53.222;7.446;2023-04-24T10:50:48;8.70;99.90
36186;DHT22;22228;53.222;7.446;2023-04-24T10:53:16;8.70;99.90
36186;DHT22;22228;53.222;7.446;2023-04-24T10:55:59;8.60;99.90
36186;DHT22;22228;53.222;7.446;2023-04-24T10:58:36;8.60;99.90
36186;DHT22;22228;53.222;7.446;2023-04-24T11:00:59;8.50;99.90
36186;DHT22;22228;53.222;7.446;2023-04-24T11:03:28;8.60;99.90
36186;DHT22;22228;53.222;7.446;2023-04-24T11:05:55;8.60;99.90
36186;DHT22;22228;53.222;7.446;2023-04-24T11:08:22;8.50;99.90
36186;DHT22;22228;53.222;7.446;2023-04-24T11:10:47;8.50;99.90
36186;DHT22;22228;53.222;7.446;2023-04-24T11:13:15;8.60;99.90
36186;DHT22;22228;53.222;7.446;2023-04-24T11:15:36;8.60;99.90
36186;DHT22;22228;53.222;7.446;2023-04-24T11:17:57;8.50;99.90
36186;DHT22;22228;53.222;7.446;2023-04-24T11:20:23;8.50;99.90
36186;DHT22;22228;53.222;7.446;2023-04-24T11:22:44;8.50;99.90
36186;DHT22;22228;53.222;7.446;2023-04-24T11:25:06;8.60;99.90
36186;DHT22;22228;53.222;7.446;2023-04-24T11:27:29;8.50;99.90
36186;DHT22;22228;53.222;7.446;2023-04-24T11:29:59;8.40;99.90
36186;DHT22;22228;53.222;7.446;2023-04-24T11:32:26;8.30;99.90
36186;DHT22;22228;53.222;7.446;2023-04-24T11:34:47;8.40;99.90
36186;DHT22;22228;53.222;7.446;2023-04-24T11:37:10;8.40;99.90
36186;DHT22;22228;53.222;7.446;2023-04-24T11:39:36;8.50;99.90
36186;DHT22;22228;53.222;7.446;2023-04-24T11:42:02;8.50;99.90
36186;DHT22;22228;53.222;7.446;2023-04-24T11:44:24;8.50;99.90
36186;DHT22;22228;53.222;7.446;2023-04-24T11:46:45;8.50;99.90
36186;DHT22;22228;53.222;7.446;2023-04-24T11:49:05;8.50;99.90
36186;DHT22;22228;53.222;7.446;2023-04-24T11:51:27;8.50;99.90
36186;DHT22;22228;53.222;7.446;2023-04-24T11:53:49;8.50;99.90
36186;DHT22;22228;53.222;7.446;2023-04-24T11:56:09;8.40;99.90
36186;DHT22;22228;53.222;7.446;2023-04-24T11:58:35;8.40;99.90
36186;DHT22;22228;53.222;7.446;2023-04-24T12:00:56;8.40;99.90
36186;DHT22;22228;53.222;7.446;2023-04-24T12:03:18;8.40;99.90
36186;DHT22;22228;53.222;7.446;2023-04-24T12:05:39;8.30;99.90
36186;DHT22;22228;53.222;7.446;2023-04-24T12:08:00;8.30;99.90
36186;DHT22;22228;53.222;7.446;2023-04-24T12:10:23;8.30;99.90
36186;DHT22;22228;53.222;7.446;2023-04-24T12:12:45;8.20;99.90
36186;DHT22;22228;53.222;7.446;2023-04-24T12:15:07;8.20;99.90
36186;DHT22;22228;53.222;7.446;2023-04-24T12:17:29;8.30;99.90
36186;DHT22;22228;53.222;7.446;2023-04-24T12:19:50;8.40;99.90
36186;DHT22;22228;53.222;7.446;2023-04-24T12:22:10;8.40;99.90
36186;DHT22;22228;53.222;7.446;2023-04-24T12:24:31;8.40;99.90
36186;DHT22;22228;53.222;7.446;2023-04-24T12:26:53;8.50;99.90
36186;DHT22;22228;53.222;7.446;2023-04-24T12:29:19;8.50;99.90
36186;DHT22;22228;53.222;7.446;2023-04-24T12:31:40;8.50;99.90
36186;DHT22;22228;53.222;7.446;2023-04-24T12:34:00;8.60;99.90
36186;DHT22;22228;53.222;7.446;2023-04-24T12:36:21;8.70;99.90
36186;DHT22;22228;53.222;7.446;2023-04-24T12:38:44;8.80;99.90
36186;DHT22;22228;53.222;7.446;2023-04-24T12:41:07;8.90;99.90
36186;DHT22;22228;53.222;7.446;2023-04-24T12:43:29;8.90;99.90
36186;DHT22;22228;53.222;7.446;2023-04-24T12:45:49;8.90;99.90
36186;DHT22;22228;53.222;7.446;2023-04-24T12:48:10;9.00;99.90
36186;DHT22;22228;53.222;7.446;2023-04-24T12:50:30;9.00;99.90
36186;DHT22;22228;53.222;7.446;2023-04-24T12:52:51;9.00;99.90
36186;DHT22;22228;53.222;7.446;2023-04-24T12:55:12;9.10;99.90
36186;DHT22;22228;53.222;7.446;2023-04-24T12:57:32;9.10;99.90
36186;DHT22;22228;53.222;7.446;2023-04-24T12:59:55;9.20;99.90
36186;DHT22;22228;53.222;7.446;2023-04-24T13:02:16;9.00;99.90
36186;DHT22;22228;53.222;7.446;2023-04-24T13:04:37;9.10;99.90
36186;DHT22;22228;53.222;7.446;2023-04-24T13:06:58;9.10;99.90
36186;DHT22;22228;53.222;7.446;2023-04-24T13:09:19;9.10;99.90
36186;DHT22;22228;53.222;7.446;2023-04-24T13:11:39;9.10;99.90
36186;DHT22;22228;53.222;7.446;2023-04-24T13:14:00;9.10;99.90
36186;DHT22;22228;53.222;7.446;2023-04-24T13:16:21;9.10;99.90
36186;DHT22;22228;53.222;7.446;2023-04-24T13:18:42;9.10;99.90
36186;DHT22;22228;53.222;7.446;2023-04-24T13:21:03;9.10;99.90
36186;DHT22;22228;53.222;7.446;2023-04-24T13:23:23;9.10;99.90
36186;DHT22;22228;53.222;7.446;2023-04-24T13:25:44;9.00;99.90
36186;DHT22;22228;53.222;7.446;2023-04-24T13:28:06;9.00;99.90
36186;DHT22;22228;53.222;7.446;2023-04-24T13:30:27;8.90;99.90
36186;DHT22;22228;53.222;7.446;2023-04-24T13:32:48;8.80;99.90
36186;DHT22;22228;53.222;7.446;2023-04-24T13:35:09;8.80;99.90
36186;DHT22;22228;53.222;7.446;2023-04-24T13:37:30;8.80;99.90
36186;DHT22;22228;53.222;7.446;2023-04-24T13:39:50;8.80;99.90
36186;DHT22;22228;53.222;7.446;2023-04-24T13:42:11;8.80;99.90
36186;DHT22;22228;53.222;7.446;2023-04-24T13:44:32;8.80;99.90
36186;DHT22;22228;53.222;7.446;2023-04-24T13:46:54;8.90;99.90
36186;DHT22;22228;53.222;7.446;2023-04-24T13:49:17;8.90;99.90
36186;DHT22;22228;53.222;7.446;2023-04-24T13:51:39;8.90;99.90
36186;DHT22;22228;53.222;7.446;2023-04-24T13:54:00;9.00;99.90
36186;DHT22;22228;53.222;7.446;2023-04-24T13:56:21;9.00;99.90
36186;DHT22;22228;53.222;7.446;2023-04-24T13:58:42;9.10;99.90
36186;DHT22;22228;53.222;7.446;2023-04-24T14:01:03;9.10;99.90
36186;DHT22;22228;53.222;7.446;2023-04-24T14:03:24;9.10;99.90
36186;DHT22;22228;53.222;7.446;2023-04-24T14:05:46;9.10;99.90
36186;DHT22;22228;53.222;7.446;2023-04-24T14:08:06;9.10;99.90
36186;DHT22;22228;53.222;7.446;2023-04-24T14:10:26;9.10;99.90
36186;DHT22;22228;53.222;7.446;2023-04-24T14:12:47;9.00;99.90
36186;DHT22;22228;53.222;7.446;2023-04-24T14:15:09;9.00;99.90
36186;DHT22;22228;53.222;7.446;2023-04-24T14:17:30;8.90;99.90
36186;DHT22;22228;53.222;7.446;2023-04-24T14:19:50;8.90;99.90
36186;DHT22;22228;53.222;7.446;2023-04-24T14:22:12;8.90;99.90
36186;DHT22;22228;53.222;7.446;2023-04-24T14:24:33;8.80;99.90
36186;DHT22;22228;53.222;7.446;2023-04-24T14:26:54;8.80;99.90
36186;DHT22;22228;53.222;7.446;2023-04-24T14:29:15;8.80;99.90
36186;DHT22;22228;53.222;7.446;2023-04-24T14:31:36;8.70;99.90
36186;DHT22;22228;53.222;7.446;2023-04-24T14:33:57;8.70;99.90
36186;DHT22;22228;53.222;7.446;2023-04-24T14:36:17;8.70;99.90
36186;DHT22;22228;53.222;7.446;2023-04-24T14:38:39;8.80;99.90
36186;DHT22;22228;53.222;7.446;2023-04-24T14:41:00;8.80;99.90
36186;DHT22;22228;53.222;7.446;2023-04-24T14:43:26;8.80;99.90
36186;DHT22;22228;53.222;7.446;2023-04-24T14:45:47;8.90;99.90
36186;DHT22;22228;53.222;7.446;2023-04-24T14:48:09;9.00;99.90
36186;DHT22;22228;53.222;7.446;2023-04-24T14:50:30;9.20;99.90
36186;DHT22;22228;53.222;7.446;2023-04-24T14:52:51;9.30;99.90
36186;DHT22;22228;53.222;7.446;2023-04-24T14:55:13;9.30;99.90
36186;DHT22;22228;53.222;7.446;2023-04-24T14:57:33;9.30;99.90
36186;DHT22;22228;53.222;7.446;2023-04-24T14:59:58;9.30;99.90
36186;DHT22;22228;53.222;7.446;2023-04-24T15:02:25;9.20;99.90
36186;DHT22;22228;53.222;7.446;2023-04-24T15:04:45;9.20;99.90
36186;DHT22;22228;53.222;7.446;2023-04-24T15:07:07;9.20;99.90
36186;DHT22;22228;53.222;7.446;2023-04-24T15:09:28;9.20;99.90
36186;DHT22;22228;53.222;7.446;2023-04-24T15:11:52;9.10;99.90
36186;DHT22;22228;53.222;7.446;2023-04-24T15:14:12;8.90;99.90
36186;DHT22;22228;53.222;7.446;2023-04-24T15:16:33;8.70;99.90
36186;DHT22;22228;53.222;7.446;2023-04-24T15:18:55;8.60;99.90
36186;DHT22;22228;53.222;7.446;2023-04-24T15:21:16;8.60;99.90
36186;DHT22;22228;53.222;7.446;2023-04-24T15:23:36;8.70;99.90
36186;DHT22;22228;53.222;7.446;2023-04-24T15:25:57;8.70;99.90
36186;DHT22;22228;53.222;7.446;2023-04-24T15:28:19;8.80;99.90
36186;DHT22;22228;53.222;7.446;2023-04-24T15:30:40;8.70;99.90
36186;DHT22;22228;53.222;7.446;2023-04-24T15:33:01;8.70;99.90
36186;DHT22;22228;53.222;7.446;2023-04-24T15:35:21;8.70;99.90
36186;DHT22;22228;53.222;7.446;2023-04-24T15:37:42;8.70;99.90
36186;DHT22;22228;53.222;7.446;2023-04-24T15:40:03;8.70;99.90
36186;DHT22;22228;53.222;7.446;2023-04-24T15:42:24;8.70;99.90
36186;DHT22;22228;53.222;7.446;2023-04-24T15:44:46;8.60;99.90
36186;DHT22;22228;53.222;7.446;2023-04-24T15:47:07;8.70;99.90
36186;DHT22;22228;53.222;7.446;2023-04-24T15:49:27;8.70;99.90
36186;DHT22;22228;53.222;7.446;2023-04-24T15:51:48;8.70;99.90
36186;DHT22;22228;53.222;7.446;2023-04-24T15:54:08;8.70;99.90
36186;DHT22;22228;53.222;7.446;2023-04-24T15:56:29;8.70;99.90
36186;DHT22;22228;53.222;7.446;2023-04-24T15:58:49;8.80;99.90
36186;DHT22;22228;53.222;7.446;2023-04-24T16:01:11;8.80;99.90
36186;DHT22;22228;53.222;7.446;2023-04-24T16:03:32;8.70;99.90
36186;DHT22;22228;53.222;7.446;2023-04-24T16:05:52;8.60;99.90
36186;DHT22;22228;53.222;7.446;2023-04-24T16:08:12;8.50;99.90
36186;DHT22;22228;53.222;7.446;2023-04-24T16:10:33;8.50;99.90
36186;DHT22;22228;53.222;7.446;2023-04-24T16:12:53;8.40;99.90
36186;DHT22;22228;53.222;7.446;2023-04-24T16:15:14;8.40;99.90
36186;DHT22;22228;53.222;7.446;2023-04-24T16:17:36;8.30;99.90
36186;DHT22;22228;53.222;7.446;2023-04-24T16:19:56;8.30;99.90
36186;DHT22;22228;53.222;7.446;2023-04-24T16:22:16;8.30;99.90
36186;DHT22;22228;53.222;7.446;2023-04-24T16:24:37;8.30;99.90
36186;DHT22;22228;53.222;7.446;2023-04-24T16:26:57;8.40;99.90
36186;DHT22;22228;53.222;7.446;2023-04-24T16:29:19;8.50;99.90
36186;DHT22;22228;53.222;7.446;2023-04-24T16:31:39;8.60;99.90
36186;DHT22;22228;53.222;7.446;2023-04-24T16:34:01;8.70;99.90
36186;DHT22;22228;53.222;7.446;2023-04-24T16:36:22;8.60;99.90
36186;DHT22;22228;53.222;7.446;2023-04-24T16:38:42;8.60;99.90
36186;DHT22;22228;53.222;7.446;2023-04-24T16:41:02;8.60;99.90
36186;DHT22;22228;53.222;7.446;2023-04-24T16:43:23;8.60;99.90
36186;DHT22;22228;53.222;7.446;2023-04-24T16:45:45;8.60;99.90
36186;DHT22;22228;53.222;7.446;2023-04-24T16:48:05;8.70;99.90
36186;DHT22;22228;53.222;7.446;2023-04-24T16:50:30;8.70;99.90
36186;DHT22;22228;53.222;7.446;2023-04-24T16:52:50;8.70;99.90
36186;DHT22;22228;53.222;7.446;2023-04-24T16:55:11;8.70;99.90
36186;DHT22;22228;53.222;7.446;2023-04-24T16:57:31;8.60;99.90
36186;DHT22;22228;53.222;7.446;2023-04-24T16:59:53;8.60;99.90
36186;DHT22;22228;53.222;7.446;2023-04-24T17:02:13;8.50;99.90
36186;DHT22;22228;53.222;7.446;2023-04-24T17:04:34;8.40;99.90
36186;DHT22;22228;53.222;7.446;2023-04-24T17:06:56;8.40;99.90
36186;DHT22;22228;53.222;7.446;2023-04-24T17:09:16;8.40;99.90
36186;DHT22;22228;53.222;7.446;2023-04-24T17:11:37;8.30;99.90
36186;DHT22;22228;53.222;7.446;2023-04-24T17:13:57;8.40;99.90
36186;DHT22;22228;53.222;7.446;2023-04-24T17:16:18;8.30;99.90
36186;DHT22;22228;53.222;7.446;2023-04-24T17:18:39;8.30;99.90
36186;DHT22;22228;53.222;7.446;2023-04-24T17:20:59;8.20;99.90
36186;DHT22;22228;53.222;7.446;2023-04-24T17:23:21;8.20;99.90
36186;DHT22;22228;53.222;7.446;2023-04-24T17:25:42;8.10;99.90
36186;DHT22;22228;53.222;7.446;2023-04-24T17:28:03;8.00;99.90
36186;DHT22;22228;53.222;7.446;2023-04-24T17:30:23;8.00;99.90
36186;DHT22;22228;53.222;7.446;2023-04-24T17:32:44;7.90;99.90
36186;DHT22;22228;53.222;7.446;2023-04-24T17:35:05;7.90;99.90
36186;DHT22;22228;53.222;7.446;2023-04-24T17:37:26;7.90;99.90
36186;DHT22;22228;53.222;7.446;2023-04-24T17:39:48;8.00;99.90
36186;DHT22;22228;53.222;7.446;2023-04-24T17:42:08;8.00;99.90
36186;DHT22;22228;53.222;7.446;2023-04-24T17:44:29;8.00;99.90
36186;DHT22;22228;53.222;7.446;2023-04-24T17:46:49;8.00;99.90
36186;DHT22;22228;53.222;7.446;2023-04-24T17:49:10;8.10;99.90
36186;DHT22;22228;53.222;7.446;2023-04-24T17:51:30;8.10;99.90
36186;DHT22;22228;53.222;7.446;2023-04-24T17:53:51;8.10;99.90
36186;DHT22;22228;53.222;7.446;2023-04-24T17:56:13;8.10;99.90
36186;DHT22;22228;53.222;7.446;2023-04-24T17:58:33;8.10;99.90